sensor_id;sensor_type;location;lat;lon;timestamp;P1;durP1;ratioP1;P2;durP2;ratioP2
53890;SDS011;41337;51.400;-2.342;2023-06-10T08:20:44;22.13;;;11.93;;
53890;SDS011;41337;51.400;-2.342;2023-06-10T11:10:28;12.43;;;7.25;;
53890;SDS011;41337;51.400;-2.342;2023-06-10T11:15:50;10.50;;;7.00;;
53890;SDS011;41337;51.400;-2.342;2023-06-10T11:21:01;13.32;;;7.22;;
53890;SDS011;41337;51.400;-2.342;2023-06-10T11:31:19;9.50;;;7.18;;
53890;SDS011;41337;51.400;-2.342;2023-06-10T11:36:25;11.45;;;7.82;;
53890;SDS011;41337;51.400;-2.342;2023-06-10T11:41:27;14.05;;;7.95;;
53890;SDS011;41337;51.400;-2.342;2023-06-10T11:46:29;12.48;;;7.15;;
53890;SDS011;41337;51.400;-2.342;2023-06-10T11:51:32;10.63;;;6.95;;
53890;SDS011;41337;51.400;-2.342;2023-06-10T11:56:34;12.20;;;7.68;;
53890;SDS011;41337;51.400;-2.342;2023-06-10T12:01:36;10.57;;;6.72;;
53890;SDS011;41337;51.400;-2.342;2023-06-10T12:06:43;13.05;;;7.05;;
53890;SDS011;41337;51.400;-2.342;2023-06-10T12:12:05;11.45;;;7.30;;
53890;SDS011;41337;51.400;-2.342;2023-06-10T12:17:07;8.52;;;6.70;;
53890;SDS011;41337;51.400;-2.342;2023-06-10T12:22:08;10.15;;;7.78;;
53890;SDS011;41337;51.400;-2.342;2023-06-10T12:27:12;10.93;;;6.85;;
53890;SDS011;41337;51.400;-2.342;2023-06-10T12:32:13;11.15;;;7.78;;
53890;SDS011;41337;51.400;-2.342;2023-06-10T12:37:15;10.73;;;7.07;;
53890;SDS011;41337;51.400;-2.342;2023-06-10T12:42:16;12.57;;;7.97;;
53890;SDS011;41337;51.400;-2.342;2023-06-10T12:47:17;9.02;;;8.13;;
53890;SDS011;41337;51.400;-2.342;2023-06-10T12:52:18;10.45;;;6.95;;
53890;SDS011;41337;51.400;-2.342;2023-06-10T12:57:19;13.35;;;7.60;;
53890;SDS011;41337;51.400;-2.342;2023-06-10T13:02:20;11.15;;;6.95;;
53890;SDS011;41337;51.400;-2.342;2023-06-10T13:07:23;9.70;;;6.60;;
53890;SDS011;41337;51.400;-2.342;2023-06-10T13:12:25;13.30;;;6.78;;
53890;SDS011;41337;51.400;-2.342;2023-06-10T13:17:29;9.50;;;7.45;;
53890;SDS011;41337;51.400;-2.342;2023-06-10T13:22:29;9.93;;;6.93;;
53890;SDS011;41337;51.400;-2.342;2023-06-10T13:27:33;13.63;;;8.23;;
53890;SDS011;41337;51.400;-2.342;2023-06-10T13:32:35;11.65;;;7.72;;
53890;SDS011;41337;51.400;-2.342;2023-06-10T13:37:36;8.38;;;7.40;;
53890;SDS011;41337;51.400;-2.342;2023-06-10T13:42:37;11.98;;;7.57;;
53890;SDS011;41337;51.400;-2.342;2023-06-10T13:47:38;10.75;;;7.65;;
53890;SDS011;41337;51.400;-2.342;2023-06-10T13:52:39;11.63;;;7.53;;
53890;SDS011;41337;51.400;-2.342;2023-06-10T13:57:39;12.60;;;8.50;;
53890;SDS011;41337;51.400;-2.342;2023-06-10T14:02:40;10.80;;;7.38;;
53890;SDS011;41337;51.400;-2.342;2023-06-10T14:07:41;10.38;;;7.13;;
53890;SDS011;41337;51.400;-2.342;2023-06-10T14:12:42;15.63;;;8.18;;
53890;SDS011;41337;51.400;-2.342;2023-06-10T14:17:43;9.27;;;7.55;;
53890;SDS011;41337;51.400;-2.342;2023-06-10T14:22:44;9.25;;;7.63;;
53890;SDS011;41337;51.400;-2.342;2023-06-10T14:27:44;14.65;;;8.38;;
53890;SDS011;41337;51.400;-2.342;2023-06-10T14:32:47;9.70;;;7.68;;
53890;SDS011;41337;51.400;-2.342;2023-06-10T14:37:48;8.95;;;6.95;;
53890;SDS011;41337;51.400;-2.342;2023-06-10T14:42:49;9.13;;;7.72;;
53890;SDS011;41337;51.400;-2.342;2023-06-10T14:47:49;12.15;;;7.93;;
53890;SDS011;41337;51.400;-2.342;2023-06-10T14:52:50;9.45;;;7.65;;
53890;SDS011;41337;51.400;-2.342;2023-06-10T14:57:51;12.48;;;7.32;;
53890;SDS011;41337;51.400;-2.342;2023-06-10T15:02:52;9.95;;;7.53;;
53890;SDS011;41337;51.400;-2.342;2023-06-10T15:07:55;9.15;;;7.55;;
53890;SDS011;41337;51.400;-2.342;2023-06-10T15:12:56;10.93;;;7.85;;
53890;SDS011;41337;51.400;-2.342;2023-06-10T15:17:58;11.05;;;8.27;;
53890;SDS011;41337;51.400;-2.342;2023-06-10T15:22:59;11.43;;;7.55;;
53890;SDS011;41337;51.400;-2.342;2023-06-10T15:28:00;8.68;;;7.15;;
53890;SDS011;41337;51.400;-2.342;2023-06-10T15:33:00;8.98;;;7.65;;
53890;SDS011;41337;51.400;-2.342;2023-06-10T15:38:01;11.80;;;8.18;;
53890;SDS011;41337;51.400;-2.342;2023-06-10T15:43:02;10.52;;;7.90;;
53890;SDS011;41337;51.400;-2.342;2023-06-10T15:48:03;11.90;;;7.57;;
53890;SDS011;41337;51.400;-2.342;2023-06-10T15:53:05;9.50;;;7.88;;
53890;SDS011;41337;51.400;-2.342;2023-06-10T15:58:06;10.80;;;7.90;;
53890;SDS011;41337;51.400;-2.342;2023-06-10T16:03:07;15.63;;;8.77;;
53890;SDS011;41337;51.400;-2.342;2023-06-10T16:08:09;12.55;;;8.23;;
53890;SDS011;41337;51.400;-2.342;2023-06-10T16:13:10;14.52;;;8.55;;
53890;SDS011;41337;51.400;-2.342;2023-06-10T16:18:10;12.90;;;8.20;;
53890;SDS011;41337;51.400;-2.342;2023-06-10T16:23:11;11.02;;;8.07;;
53890;SDS011;41337;51.400;-2.342;2023-06-10T16:28:12;13.50;;;8.30;;
53890;SDS011;41337;51.400;-2.342;2023-06-10T16:33:13;9.80;;;8.07;;
53890;SDS011;41337;51.400;-2.342;2023-06-10T16:38:14;12.00;;;7.97;;
53890;SDS011;41337;51.400;-2.342;2023-06-10T16:43:15;15.15;;;8.00;;
53890;SDS011;41337;51.400;-2.342;2023-06-10T16:48:19;13.45;;;9.18;;
53890;SDS011;41337;51.400;-2.342;2023-06-10T16:53:20;14.93;;;8.57;;
53890;SDS011;41337;51.400;-2.342;2023-06-10T16:58:21;11.85;;;8.63;;
53890;SDS011;41337;51.400;-2.342;2023-06-10T17:03:22;13.98;;;7.60;;
53890;SDS011;41337;51.400;-2.342;2023-06-10T17:08:22;15.80;;;8.60;;
53890;SDS011;41337;51.400;-2.342;2023-06-10T17:13:23;9.77;;;8.05;;
53890;SDS011;41337;51.400;-2.342;2023-06-10T17:18:24;12.15;;;7.25;;
53890;SDS011;41337;51.400;-2.342;2023-06-10T17:23:25;14.15;;;8.15;;
53890;SDS011;41337;51.400;-2.342;2023-06-10T17:28:26;12.18;;;8.18;;
53890;SDS011;41337;51.400;-2.342;2023-06-10T17:33:27;10.88;;;7.93;;
53890;SDS011;41337;51.400;-2.342;2023-06-10T17:38:27;11.00;;;7.90;;
53890;SDS011;41337;51.400;-2.342;2023-06-10T17:43:30;11.07;;;8.52;;
53890;SDS011;41337;51.400;-2.342;2023-06-10T17:48:30;15.38;;;8.35;;
53890;SDS011;41337;51.400;-2.342;2023-06-10T17:53:31;9.85;;;8.00;;
53890;SDS011;41337;51.400;-2.342;2023-06-10T17:58:32;11.90;;;7.80;;
53890;SDS011;41337;51.400;-2.342;2023-06-10T18:03:33;8.30;;;7.47;;
53890;SDS011;41337;51.400;-2.342;2023-06-10T18:08:36;14.18;;;8.35;;
53890;SDS011;41337;51.400;-2.342;2023-06-10T18:13:37;13.05;;;8.38;;
53890;SDS011;41337;51.400;-2.342;2023-06-10T18:18:38;17.50;;;8.73;;
53890;SDS011;41337;51.400;-2.342;2023-06-10T18:23:40;16.10;;;8.50;;
53890;SDS011;41337;51.400;-2.342;2023-06-10T18:28:41;15.88;;;10.32;;
53890;SDS011;41337;51.400;-2.342;2023-06-10T18:33:42;17.02;;;9.98;;
53890;SDS011;41337;51.400;-2.342;2023-06-10T18:38:42;12.00;;;10.80;;
53890;SDS011;41337;51.400;-2.342;2023-06-10T18:43:43;25.58;;;14.38;;
53890;SDS011;41337;51.400;-2.342;2023-06-10T18:48:44;14.43;;;9.77;;
53890;SDS011;41337;51.400;-2.342;2023-06-10T18:53:47;15.05;;;8.80;;
53890;SDS011;41337;51.400;-2.342;2023-06-10T18:58:48;15.15;;;9.90;;
53890;SDS011;41337;51.400;-2.342;2023-06-10T19:03:49;16.00;;;9.57;;
53890;SDS011;41337;51.400;-2.342;2023-06-10T19:08:50;10.52;;;8.88;;
53890;SDS011;41337;51.400;-2.342;2023-06-10T19:13:52;10.45;;;8.70;;
53890;SDS011;41337;51.400;-2.342;2023-06-10T19:18:52;11.63;;;8.70;;
53890;SDS011;41337;51.400;-2.342;2023-06-10T19:23:54;11.57;;;9.07;;
53890;SDS011;41337;51.400;-2.342;2023-06-10T19:28:55;13.63;;;9.88;;
53890;SDS011;41337;51.400;-2.342;2023-06-10T19:33:56;12.55;;;9.98;;
53890;SDS011;41337;51.400;-2.342;2023-06-10T19:38:56;12.15;;;9.50;;
53890;SDS011;41337;51.400;-2.342;2023-06-10T19:43:57;15.35;;;10.35;;
53890;SDS011;41337;51.400;-2.342;2023-06-10T19:48:58;13.07;;;10.63;;
53890;SDS011;41337;51.400;-2.342;2023-06-10T19:54:00;16.05;;;10.52;;
53890;SDS011;41337;51.400;-2.342;2023-06-10T19:59:01;12.60;;;9.80;;
53890;SDS011;41337;51.400;-2.342;2023-06-10T20:04:02;16.33;;;11.32;;
53890;SDS011;41337;51.400;-2.342;2023-06-10T20:09:03;20.08;;;11.07;;
53890;SDS011;41337;51.400;-2.342;2023-06-10T20:14:04;17.92;;;11.73;;
53890;SDS011;41337;51.400;-2.342;2023-06-10T20:19:05;17.20;;;11.40;;
53890;SDS011;41337;51.400;-2.342;2023-06-10T20:24:06;16.80;;;11.02;;
53890;SDS011;41337;51.400;-2.342;2023-06-10T20:29:08;17.58;;;11.38;;
53890;SDS011;41337;51.400;-2.342;2023-06-10T20:34:09;18.25;;;10.88;;
53890;SDS011;41337;51.400;-2.342;2023-06-10T20:39:10;22.45;;;11.82;;
53890;SDS011;41337;51.400;-2.342;2023-06-10T20:44:12;16.08;;;11.77;;
53890;SDS011;41337;51.400;-2.342;2023-06-10T20:49:14;15.82;;;12.02;;
53890;SDS011;41337;51.400;-2.342;2023-06-10T20:54:18;17.65;;;12.13;;
53890;SDS011;41337;51.400;-2.342;2023-06-10T20:59:20;16.80;;;12.23;;
53890;SDS011;41337;51.400;-2.342;2023-06-10T21:04:21;20.35;;;12.77;;
53890;SDS011;41337;51.400;-2.342;2023-06-10T21:09:22;19.30;;;13.50;;
53890;SDS011;41337;51.400;-2.342;2023-06-10T21:14:22;18.48;;;12.50;;
53890;SDS011;41337;51.400;-2.342;2023-06-10T21:19:23;23.63;;;13.90;;
53890;SDS011;41337;51.400;-2.342;2023-06-10T21:24:24;17.60;;;12.50;;
53890;SDS011;41337;51.400;-2.342;2023-06-10T21:29:25;23.67;;;13.13;;
53890;SDS011;41337;51.400;-2.342;2023-06-10T21:34:26;23.83;;;13.48;;
53890;SDS011;41337;51.400;-2.342;2023-06-10T21:39:27;20.40;;;13.63;;
53890;SDS011;41337;51.400;-2.342;2023-06-10T21:44:28;24.05;;;14.95;;
53890;SDS011;41337;51.400;-2.342;2023-06-10T21:49:29;17.90;;;15.30;;
53890;SDS011;41337;51.400;-2.342;2023-06-10T21:54:29;18.55;;;13.88;;
53890;SDS011;41337;51.400;-2.342;2023-06-10T21:59:30;17.70;;;14.73;;
53890;SDS011;41337;51.400;-2.342;2023-06-10T22:04:34;20.55;;;15.10;;
53890;SDS011;41337;51.400;-2.342;2023-06-10T22:09:35;20.15;;;15.18;;
53890;SDS011;41337;51.400;-2.342;2023-06-10T22:14:36;18.05;;;14.90;;
53890;SDS011;41337;51.400;-2.342;2023-06-10T22:19:37;19.75;;;13.63;;
53890;SDS011;41337;51.400;-2.342;2023-06-10T22:24:39;16.13;;;13.63;;
53890;SDS011;41337;51.400;-2.342;2023-06-10T22:29:40;18.90;;;12.70;;
53890;SDS011;41337;51.400;-2.342;2023-06-10T22:34:41;16.17;;;12.50;;
53890;SDS011;41337;51.400;-2.342;2023-06-10T22:39:41;20.55;;;14.32;;
53890;SDS011;41337;51.400;-2.342;2023-06-10T22:44:42;18.67;;;13.30;;
53890;SDS011;41337;51.400;-2.342;2023-06-10T22:49:47;18.05;;;14.15;;
53890;SDS011;41337;51.400;-2.342;2023-06-10T22:54:48;23.10;;;14.65;;
53890;SDS011;41337;51.400;-2.342;2023-06-10T22:59:49;20.25;;;13.90;;
53890;SDS011;41337;51.400;-2.342;2023-06-10T23:04:50;20.65;;;14.88;;
53890;SDS011;41337;51.400;-2.342;2023-06-10T23:09:50;22.70;;;14.93;;
53890;SDS011;41337;51.400;-2.342;2023-06-10T23:14:52;22.00;;;15.23;;
53890;SDS011;41337;51.400;-2.342;2023-06-10T23:19:57;18.10;;;15.25;;
53890;SDS011;41337;51.400;-2.342;2023-06-10T23:24:58;23.17;;;15.77;;
53890;SDS011;41337;51.400;-2.342;2023-06-10T23:30:00;24.58;;;17.15;;
53890;SDS011;41337;51.400;-2.342;2023-06-10T23:35:01;19.67;;;15.95;;
53890;SDS011;41337;51.400;-2.342;2023-06-10T23:40:04;21.17;;;15.93;;
53890;SDS011;41337;51.400;-2.342;2023-06-10T23:45:09;20.90;;;16.50;;
53890;SDS011;41337;51.400;-2.342;2023-06-10T23:50:10;23.10;;;16.48;;
53890;SDS011;41337;51.400;-2.342;2023-06-10T23:55:13;19.67;;;16.23;;
